createdAt,value
2022-10-18T00:00:03.691Z,53.40
2022-10-18T00:02:54.667Z,52.80
2022-10-18T00:05:23.280Z,52.60
2022-10-18T00:07:52.035Z,52.60
2022-10-18T00:10:20.704Z,52.60
2022-10-18T00:12:49.463Z,52.60
2022-10-18T00:15:18.768Z,52.50
2022-10-18T00:17:47.555Z,53.10
2022-10-18T00:20:17.612Z,52.50
2022-10-18T00:22:46.376Z,52.40
2022-10-18T00:25:15.457Z,52.40
2022-10-18T00:27:44.215Z,52.50
2022-10-18T00:30:13.266Z,52.50
2022-10-18T00:32:43.260Z,52.50
2022-10-18T00:35:11.782Z,52.40
2022-10-18T00:37:41.894Z,52.40
2022-10-18T00:40:11.935Z,52.30
2022-10-18T00:42:40.758Z,52.30
2022-10-18T00:45:23.147Z,52.40
2022-10-18T00:48:02.376Z,52.30
2022-10-18T00:50:35.200Z,52.30
2022-10-18T00:53:11.205Z,52.30
2022-10-18T00:55:40.899Z,52.30
2022-10-18T00:58:11.776Z,52.30
2022-10-18T01:00:40.872Z,52.20
2022-10-18T01:03:10.503Z,52.20
2022-10-18T01:05:44.784Z,52.20
2022-10-18T01:08:44.782Z,52.30
2022-10-18T01:11:34.792Z,52.30
2022-10-18T01:14:23.581Z,53.00
2022-10-18T01:17:02.066Z,52.30
2022-10-18T01:20:09.717Z,52.20
2022-10-18T01:22:45.589Z,52.10
2022-10-18T01:25:34.883Z,52.00
2022-10-18T01:28:21.132Z,51.90
2022-10-18T01:30:56.594Z,51.90
2022-10-18T01:33:39.238Z,52.00
2022-10-18T01:36:18.593Z,52.00
2022-10-18T01:38:52.139Z,52.00
2022-10-18T01:41:25.526Z,51.80
2022-10-18T01:44:01.315Z,51.80
2022-10-18T01:46:32.163Z,51.90
2022-10-18T01:49:01.468Z,51.80
2022-10-18T01:51:33.662Z,51.80
2022-10-18T01:54:03.081Z,52.40
2022-10-18T01:56:50.169Z,51.70
2022-10-18T01:59:41.951Z,51.70
2022-10-18T02:02:24.990Z,51.70
2022-10-18T02:05:03.793Z,51.70
2022-10-18T02:07:51.917Z,51.70
2022-10-18T02:10:36.967Z,51.60
2022-10-18T02:13:06.388Z,51.60
2022-10-18T02:15:42.473Z,51.60
2022-10-18T02:18:19.621Z,52.30
2022-10-18T02:20:50.832Z,51.60
2022-10-18T02:23:26.256Z,51.50
2022-10-18T02:25:55.526Z,51.50
2022-10-18T02:31:07.535Z,51.50
2022-10-18T02:33:49.451Z,51.50
2022-10-18T02:36:24.883Z,51.70
2022-10-18T02:39:01.470Z,51.60
2022-10-18T02:41:32.107Z,51.60
2022-10-18T02:44:00.942Z,52.10
2022-10-18T02:46:29.771Z,51.40
2022-10-18T02:48:59.826Z,51.30
2022-10-18T02:51:28.358Z,51.50
2022-10-18T02:53:57.060Z,51.40
2022-10-18T02:56:25.830Z,51.50
2022-10-18T02:58:54.557Z,51.30
2022-10-18T03:01:23.356Z,51.50
2022-10-18T03:03:52.629Z,51.50
2022-10-18T03:06:22.612Z,51.20
2022-10-18T03:08:51.360Z,51.30
2022-10-18T03:11:19.957Z,51.30
2022-10-18T03:13:50.338Z,51.30
2022-10-18T03:16:19.323Z,51.10
2022-10-18T03:18:48.313Z,51.20
2022-10-18T03:21:17.079Z,51.10
2022-10-18T03:23:47.156Z,51.20
2022-10-18T03:26:15.684Z,51.20
2022-10-18T03:28:44.526Z,51.30
2022-10-18T03:31:13.127Z,51.30
2022-10-18T03:33:41.919Z,51.00
2022-10-18T03:36:10.796Z,51.00
2022-10-18T03:38:39.742Z,51.10
2022-10-18T03:41:09.733Z,51.20
2022-10-18T03:43:38.647Z,50.70
2022-10-18T03:46:07.274Z,51.00
2022-10-18T03:48:35.997Z,50.90
2022-10-18T03:51:04.954Z,50.90
2022-10-18T03:53:33.671Z,51.00
2022-10-18T03:56:02.203Z,51.00
2022-10-18T04:01:05.783Z,50.90
2022-10-18T04:03:34.600Z,50.90
2022-10-18T04:06:03.768Z,51.00
2022-10-18T04:08:32.525Z,51.00
2022-10-18T04:11:01.041Z,50.70
2022-10-18T04:13:31.097Z,50.60
2022-10-18T04:15:59.596Z,50.60
2022-10-18T04:18:28.700Z,50.40
2022-10-18T04:20:57.359Z,50.40
2022-10-18T04:23:26.203Z,49.60
2022-10-18T04:25:54.744Z,50.60
2022-10-18T04:28:23.504Z,50.60
2022-10-18T04:30:54.192Z,50.10
2022-10-18T04:33:23.510Z,49.90
2022-10-18T04:35:54.444Z,50.30
2022-10-18T04:38:23.137Z,49.90
2022-10-18T04:40:51.899Z,50.20
2022-10-18T04:43:20.809Z,49.80
2022-10-18T04:45:51.162Z,50.10
2022-10-18T04:48:22.166Z,50.10
2022-10-18T04:50:51.716Z,49.70
2022-10-18T04:53:21.262Z,49.50
2022-10-18T04:55:51.141Z,49.50
2022-10-18T04:58:20.343Z,49.40
2022-10-18T05:00:48.907Z,49.50
2022-10-18T05:03:18.225Z,49.50
2022-10-18T05:06:01.436Z,49.60
2022-10-18T05:08:31.789Z,49.40
2022-10-18T05:11:01.285Z,49.50
2022-10-18T05:13:30.811Z,49.30
2022-10-18T05:16:00.794Z,49.20
2022-10-18T05:18:29.727Z,49.40
2022-10-18T05:20:59.918Z,49.30
2022-10-18T05:23:28.673Z,49.60
2022-10-18T05:26:03.252Z,49.40
2022-10-18T05:28:40.811Z,49.40
2022-10-18T05:31:12.635Z,49.50
2022-10-18T05:33:41.462Z,49.40
2022-10-18T05:36:11.801Z,49.60
2022-10-18T05:38:43.333Z,49.60
2022-10-18T05:41:13.383Z,49.70
2022-10-18T05:43:42.432Z,49.50
2022-10-18T05:46:15.414Z,49.60
2022-10-18T05:48:45.569Z,49.80
2022-10-18T05:51:15.522Z,49.80
2022-10-18T05:53:44.307Z,49.60
2022-10-18T05:56:12.932Z,49.70
2022-10-18T05:58:42.708Z,50.00
2022-10-18T06:01:11.906Z,49.90
2022-10-18T06:03:40.642Z,50.00
2022-10-18T06:06:12.392Z,50.10
2022-10-18T06:08:44.782Z,50.00
2022-10-18T06:11:17.186Z,49.60
2022-10-18T06:13:49.055Z,50.00
2022-10-18T06:16:21.407Z,50.10
2022-10-18T06:18:52.237Z,50.00
2022-10-18T06:21:22.340Z,49.90
2022-10-18T06:23:54.207Z,49.60
2022-10-18T06:26:23.542Z,49.80
2022-10-18T06:28:52.775Z,49.70
2022-10-18T06:31:21.787Z,48.10
2022-10-18T06:33:50.863Z,49.10
2022-10-18T06:36:22.523Z,48.70
2022-10-18T06:38:53.231Z,48.30
2022-10-18T06:41:22.100Z,48.70
2022-10-18T06:43:51.696Z,49.20
2022-10-18T06:46:20.996Z,48.80
2022-10-18T06:48:50.026Z,47.90
2022-10-18T06:51:18.554Z,48.40
2022-10-18T06:54:05.826Z,49.10
2022-10-18T06:56:37.963Z,49.00
2022-10-18T06:59:07.223Z,47.90
2022-10-18T07:01:36.130Z,46.70
2022-10-18T07:04:05.360Z,47.10
2022-10-18T07:06:33.875Z,48.40
2022-10-18T07:09:03.116Z,47.60
2022-10-18T07:11:31.827Z,47.50
2022-10-18T07:14:04.923Z,47.00
2022-10-18T07:16:36.159Z,47.90
2022-10-18T07:19:05.710Z,47.90
2022-10-18T07:21:35.123Z,46.30
2022-10-18T07:24:04.011Z,46.40
2022-10-18T07:26:35.142Z,46.40
2022-10-18T07:29:09.881Z,46.90
2022-10-18T07:31:39.748Z,46.40
2022-10-18T07:34:12.596Z,46.90
2022-10-18T07:36:41.937Z,46.70
2022-10-18T07:39:11.250Z,46.80
2022-10-18T07:41:39.934Z,47.50
2022-10-18T07:44:10.310Z,47.00
2022-10-18T07:46:38.948Z,47.50
2022-10-18T07:49:07.640Z,48.20
2022-10-18T07:51:36.227Z,47.40
2022-10-18T07:54:05.202Z,47.50
2022-10-18T07:56:33.702Z,48.30
2022-10-18T07:59:02.666Z,48.00
2022-10-18T08:01:32.577Z,47.70
2022-10-18T08:04:07.011Z,47.80
2022-10-18T08:06:36.422Z,46.60
2022-10-18T08:09:05.697Z,46.80
2022-10-18T08:11:34.602Z,47.30
2022-10-18T08:14:03.332Z,47.00
2022-10-18T08:19:06.952Z,48.70
2022-10-18T08:21:35.528Z,48.20
2022-10-18T08:24:04.681Z,47.80
2022-10-18T08:26:33.203Z,47.70
2022-10-18T08:31:52.572Z,48.70
2022-10-18T08:34:21.486Z,49.40
2022-10-18T08:36:50.056Z,51.50
2022-10-18T08:39:18.778Z,51.90
2022-10-18T08:42:27.374Z,51.00
2022-10-18T08:44:57.751Z,50.60
2022-10-18T08:47:36.625Z,49.80
2022-10-18T08:50:15.262Z,49.20
2022-10-18T08:52:58.822Z,49.40
2022-10-18T08:55:36.533Z,50.80
2022-10-18T08:58:16.908Z,51.00
2022-10-18T09:01:03.696Z,51.70
2022-10-18T09:04:01.974Z,50.80
2022-10-18T09:06:36.702Z,49.90
2022-10-18T09:09:23.276Z,49.70
2022-10-18T09:12:09.546Z,50.00
2022-10-18T09:15:18.585Z,50.30
2022-10-18T09:18:07.446Z,49.90
2022-10-18T09:20:51.143Z,48.70
2022-10-18T09:23:23.729Z,48.70
2022-10-18T09:26:00.449Z,48.10
2022-10-18T09:28:48.521Z,47.20
2022-10-18T09:31:25.553Z,47.50
2022-10-18T09:34:01.648Z,47.80
2022-10-18T09:36:37.135Z,47.30
2022-10-18T09:39:13.368Z,47.50
2022-10-18T09:41:51.281Z,46.80
2022-10-18T09:44:25.528Z,46.90
2022-10-18T09:47:02.521Z,48.40
2022-10-18T09:49:38.628Z,49.10
2022-10-18T09:52:16.697Z,49.10
2022-10-18T09:54:55.076Z,50.20
2022-10-18T09:57:33.402Z,50.40
2022-10-18T10:00:05.703Z,51.60
2022-10-18T10:02:34.247Z,52.10
2022-10-18T10:05:03.040Z,53.90
2022-10-18T10:07:42.129Z,53.30
2022-10-18T10:10:20.697Z,53.20
2022-10-18T10:13:03.135Z,52.60
2022-10-18T10:15:35.438Z,51.80
2022-10-18T10:18:22.205Z,51.30
2022-10-18T10:20:54.961Z,50.60
2022-10-18T10:23:30.388Z,49.80
2022-10-18T10:26:03.139Z,49.80
2022-10-18T10:28:37.924Z,48.90
2022-10-18T10:31:26.841Z,48.50
2022-10-18T10:34:03.167Z,47.90
2022-10-18T10:36:34.256Z,47.30
2022-10-18T10:39:12.635Z,47.60
2022-10-18T10:41:42.693Z,49.20
2022-10-18T10:44:18.508Z,49.80
2022-10-18T10:46:50.421Z,50.20
2022-10-18T10:52:28.819Z,49.90
2022-10-18T10:55:06.121Z,49.10
2022-10-18T10:57:49.601Z,48.40
2022-10-18T11:00:48.035Z,46.60
2022-10-18T11:03:29.191Z,46.80
2022-10-18T11:06:00.968Z,46.90
2022-10-18T11:08:39.810Z,47.20
2022-10-18T11:11:23.072Z,46.80
2022-10-18T11:14:13.822Z,46.90
2022-10-18T11:17:02.070Z,46.70
2022-10-18T11:19:45.706Z,46.70
2022-10-18T11:22:22.043Z,47.60
2022-10-18T11:24:50.821Z,48.50
2022-10-18T11:27:28.773Z,48.20
2022-10-18T11:30:37.432Z,48.20
2022-10-18T11:33:33.715Z,48.40
2022-10-18T11:36:21.895Z,48.10
2022-10-18T11:38:58.528Z,48.70
2022-10-18T11:41:41.031Z,49.00
2022-10-18T11:44:24.470Z,49.10
2022-10-18T11:47:05.647Z,48.90
2022-10-18T11:50:08.710Z,49.00
2022-10-18T11:52:56.135Z,48.80
2022-10-18T11:55:41.070Z,49.30
2022-10-18T11:58:37.501Z,48.60
2022-10-18T12:01:21.532Z,48.70
2022-10-18T12:04:04.678Z,49.00
2022-10-18T12:06:39.854Z,49.70
2022-10-18T12:09:20.586Z,50.20
2022-10-18T12:11:56.796Z,50.50
2022-10-18T12:14:30.875Z,50.80
2022-10-18T12:17:39.881Z,50.00
2022-10-18T12:19:59.927Z,48.90
2022-10-18T12:22:37.539Z,48.60
2022-10-18T12:25:13.217Z,48.80
2022-10-18T12:27:51.207Z,48.10
2022-10-18T12:30:28.628Z,47.70
2022-10-18T12:33:27.313Z,47.60
2022-10-18T12:36:17.912Z,47.40
2022-10-18T12:38:51.817Z,47.40
2022-10-18T12:41:27.674Z,47.70
2022-10-18T12:44:03.892Z,47.60
2022-10-18T12:46:46.737Z,47.80
2022-10-18T12:49:32.517Z,47.20
2022-10-18T12:52:06.136Z,49.30
2022-10-18T12:54:39.649Z,49.00
2022-10-18T12:57:24.633Z,49.00
2022-10-18T12:59:53.883Z,50.20
2022-10-18T13:02:33.045Z,49.50
2022-10-18T13:05:56.518Z,49.00
2022-10-18T13:08:42.574Z,48.90
2022-10-18T13:11:36.803Z,48.20
2022-10-18T13:14:59.201Z,47.80
2022-10-18T13:17:47.030Z,48.60
2022-10-18T13:20:29.975Z,47.90
2022-10-18T13:23:20.235Z,47.40
2022-10-18T13:26:05.600Z,47.50
2022-10-18T13:28:44.095Z,47.40
2022-10-18T13:31:24.159Z,47.40
2022-10-18T13:33:53.139Z,47.50
2022-10-18T13:36:26.409Z,46.90
2022-10-18T13:39:06.619Z,47.60
2022-10-18T13:42:30.529Z,47.40
2022-10-18T13:45:50.987Z,47.20
2022-10-18T13:48:51.956Z,47.50
2022-10-18T13:51:45.813Z,47.00
2022-10-18T13:54:46.713Z,47.10
2022-10-18T13:57:38.995Z,47.30
2022-10-18T14:00:48.170Z,47.50
2022-10-18T14:03:57.038Z,47.50
2022-10-18T14:06:36.560Z,48.50
2022-10-18T14:09:25.670Z,48.50
2022-10-18T14:12:17.333Z,48.00
2022-10-18T14:14:53.334Z,48.00
2022-10-18T14:20:27.329Z,48.20
2022-10-18T14:23:12.924Z,48.30
2022-10-18T14:25:41.722Z,48.20
2022-10-18T14:28:16.920Z,48.40
2022-10-18T14:30:55.580Z,49.00
2022-10-18T14:33:36.318Z,49.20
2022-10-18T14:36:15.553Z,49.70
2022-10-18T14:38:52.898Z,49.60
2022-10-18T14:41:26.561Z,49.50
2022-10-18T14:44:19.366Z,50.00
2022-10-18T14:46:51.910Z,50.10
2022-10-18T14:49:22.724Z,49.80
2022-10-18T14:51:53.977Z,50.00
2022-10-18T14:54:30.741Z,50.60
2022-10-18T14:57:02.116Z,50.60
2022-10-18T14:59:35.738Z,50.80
2022-10-18T15:02:15.586Z,51.20
2022-10-18T15:04:47.078Z,51.70
2022-10-18T15:07:19.032Z,51.90
2022-10-18T15:09:50.185Z,51.90
2022-10-18T15:12:20.129Z,52.30
2022-10-18T15:14:50.965Z,54.30
2022-10-18T15:17:26.308Z,54.50
2022-10-18T15:20:01.858Z,54.70
2022-10-18T15:22:34.947Z,54.00
2022-10-18T15:25:31.573Z,53.70
2022-10-18T15:28:02.411Z,55.50
2022-10-18T15:30:41.288Z,56.00
2022-10-18T15:33:23.347Z,57.80
2022-10-18T15:35:54.088Z,57.70
2022-10-18T15:38:28.870Z,59.30
2022-10-18T15:40:59.163Z,59.80
2022-10-18T15:43:38.083Z,59.40
2022-10-18T15:46:07.533Z,60.50
2022-10-18T15:48:40.213Z,61.10
2022-10-18T15:51:20.225Z,61.10
2022-10-18T15:53:54.101Z,61.90
2022-10-18T15:56:33.827Z,63.30
2022-10-18T15:59:06.807Z,64.30
2022-10-18T16:01:39.444Z,66.00
2022-10-18T16:04:18.206Z,67.50
2022-10-18T16:06:47.097Z,69.70
2022-10-18T16:09:19.324Z,72.40
2022-10-18T16:11:55.821Z,73.30
2022-10-18T16:14:27.234Z,75.30
2022-10-18T16:17:00.845Z,75.70
2022-10-18T16:19:29.579Z,75.40
2022-10-18T16:22:03.641Z,81.10
2022-10-18T16:24:34.894Z,78.00
2022-10-18T16:27:05.328Z,74.40
2022-10-18T16:29:34.515Z,72.30
2022-10-18T16:32:03.318Z,73.30
2022-10-18T16:34:32.673Z,69.50
2022-10-18T16:37:01.597Z,70.00
2022-10-18T16:39:34.858Z,69.90
2022-10-18T16:42:05.146Z,69.50
2022-10-18T16:44:33.859Z,66.60
2022-10-18T16:47:02.901Z,67.30
2022-10-18T16:49:31.557Z,63.70
2022-10-18T16:52:00.480Z,63.80
2022-10-18T16:54:29.015Z,65.20
2022-10-18T16:56:57.852Z,65.70
2022-10-18T16:59:30.973Z,66.80
2022-10-18T17:02:01.627Z,66.10
2022-10-18T17:04:31.637Z,66.00
2022-10-18T17:07:00.483Z,66.70
2022-10-18T17:09:29.069Z,66.20
2022-10-18T17:11:57.811Z,67.40
2022-10-18T17:14:27.671Z,66.20
2022-10-18T17:16:57.490Z,65.80
2022-10-18T17:19:26.201Z,66.70
2022-10-18T17:21:58.848Z,70.30
2022-10-18T17:24:30.273Z,65.10
2022-10-18T17:26:59.015Z,64.20
2022-10-18T17:29:28.922Z,64.00
2022-10-18T17:31:57.781Z,63.50
2022-10-18T17:34:26.307Z,67.50
2022-10-18T17:36:55.959Z,66.30
2022-10-18T17:39:24.626Z,66.20
2022-10-18T17:41:55.433Z,68.10
2022-10-18T17:44:25.067Z,68.20
2022-10-18T17:46:55.369Z,68.90
2022-10-18T17:49:24.168Z,69.80
2022-10-18T17:51:52.880Z,71.10
2022-10-18T17:54:21.412Z,71.20
2022-10-18T17:56:53.896Z,69.00
2022-10-18T17:59:23.615Z,71.10
2022-10-18T18:01:54.077Z,73.40
2022-10-18T18:04:23.720Z,72.50
2022-10-18T18:06:52.914Z,71.10
2022-10-18T18:09:22.009Z,71.60
2022-10-18T18:11:51.959Z,69.70
2022-10-18T18:14:21.331Z,69.80
2022-10-18T18:16:50.415Z,67.00
2022-10-18T18:19:20.294Z,66.30
2022-10-18T18:21:49.461Z,64.60
2022-10-18T18:24:24.465Z,64.80
2022-10-18T18:26:54.715Z,65.90
2022-10-18T18:29:25.857Z,64.60
2022-10-18T18:31:55.122Z,65.50
2022-10-18T18:34:25.380Z,64.10
2022-10-18T18:36:54.428Z,62.40
2022-10-18T18:39:25.786Z,61.70
2022-10-18T18:41:54.862Z,61.10
2022-10-18T18:44:25.096Z,62.40
2022-10-18T18:46:53.894Z,65.90
2022-10-18T18:49:23.806Z,61.00
2022-10-18T18:51:52.582Z,61.60
2022-10-18T18:54:22.141Z,63.40
2022-10-18T18:56:50.968Z,62.30
2022-10-18T18:59:20.229Z,65.30
2022-10-18T19:01:49.095Z,60.30
2022-10-18T19:04:18.044Z,63.30
2022-10-18T19:06:48.233Z,63.20
2022-10-18T19:09:22.044Z,62.90
2022-10-18T19:11:54.366Z,62.90
2022-10-18T19:14:25.760Z,63.90
2022-10-18T19:16:57.924Z,63.70
2022-10-18T19:19:29.338Z,61.90
2022-10-18T19:22:03.651Z,62.60
2022-10-18T19:24:32.689Z,62.40
2022-10-18T19:27:04.945Z,63.40
2022-10-18T19:29:37.229Z,63.20
2022-10-18T19:32:12.175Z,62.70
2022-10-18T19:34:42.374Z,64.50
2022-10-18T19:37:14.299Z,64.20
2022-10-18T19:39:43.061Z,64.50
2022-10-18T19:42:18.573Z,63.70
2022-10-18T19:44:51.080Z,63.80
2022-10-18T19:47:20.480Z,64.20
2022-10-18T19:49:49.200Z,63.00
2022-10-18T19:52:19.326Z,61.90
2022-10-18T19:54:49.719Z,63.70
2022-10-18T19:57:18.459Z,64.00
2022-10-18T19:59:47.124Z,63.80
2022-10-18T20:02:16.167Z,64.90
2022-10-18T20:04:44.814Z,64.40
2022-10-18T20:07:13.693Z,63.30
2022-10-18T20:09:43.662Z,64.20
2022-10-18T20:12:12.529Z,64.00
2022-10-18T20:14:41.154Z,62.70
2022-10-18T20:17:12.964Z,62.40
2022-10-18T20:19:41.580Z,63.30
2022-10-18T20:22:10.365Z,64.30
2022-10-18T20:24:39.010Z,63.70
2022-10-18T20:27:09.134Z,62.70
2022-10-18T20:29:37.698Z,63.30
2022-10-18T20:32:06.891Z,61.80
2022-10-18T20:34:35.571Z,60.80
2022-10-18T20:37:04.306Z,60.80
2022-10-18T20:39:33.656Z,61.20
2022-10-18T20:42:02.862Z,60.40
2022-10-18T20:44:33.999Z,59.70
2022-10-18T20:47:02.942Z,59.80
2022-10-18T20:49:31.556Z,59.70
2022-10-18T20:52:00.507Z,59.10
2022-10-18T20:54:29.053Z,59.10
2022-10-18T20:56:57.758Z,59.20
2022-10-18T20:59:26.308Z,59.80
2022-10-18T21:01:56.856Z,60.30
2022-10-18T21:04:26.017Z,61.40
2022-10-18T21:06:55.068Z,62.00
2022-10-18T21:09:23.872Z,61.90
2022-10-18T21:11:53.900Z,61.70
2022-10-18T21:14:24.948Z,62.80
2022-10-18T21:16:54.311Z,62.60
2022-10-18T21:19:27.094Z,62.90
2022-10-18T21:21:58.549Z,62.30
2022-10-18T21:24:27.960Z,63.20
2022-10-18T21:26:57.338Z,63.00
2022-10-18T21:29:25.854Z,62.20
2022-10-18T21:31:59.345Z,61.90
2022-10-18T21:34:29.304Z,61.70
2022-10-18T21:36:57.967Z,62.70
2022-10-18T21:39:26.770Z,63.60
2022-10-18T21:41:55.607Z,64.60
2022-10-18T21:44:24.241Z,64.50
2022-10-18T21:46:53.010Z,63.20
2022-10-18T21:49:24.956Z,62.50
2022-10-18T21:51:55.179Z,63.30
2022-10-18T21:54:23.745Z,63.50
2022-10-18T21:56:52.486Z,64.30
2022-10-18T21:59:21.210Z,63.60
2022-10-18T22:01:50.042Z,64.80
2022-10-18T22:04:22.229Z,64.80
2022-10-18T22:06:51.985Z,65.20
2022-10-18T22:09:22.472Z,64.70
2022-10-18T22:11:54.219Z,63.50
2022-10-18T22:14:24.047Z,62.90
2022-10-18T22:16:53.121Z,61.80
2022-10-18T22:19:22.255Z,63.20
2022-10-18T22:21:52.694Z,63.50
2022-10-18T22:24:22.614Z,63.00
2022-10-18T22:26:51.546Z,62.70
2022-10-18T22:29:22.423Z,62.90
2022-10-18T22:31:54.551Z,63.00
2022-10-18T22:34:27.615Z,62.40
2022-10-18T22:36:57.372Z,62.90
2022-10-18T22:39:27.659Z,63.70
2022-10-18T22:41:57.342Z,63.20
2022-10-18T22:44:26.082Z,63.20
2022-10-18T22:46:54.864Z,63.20
2022-10-18T22:49:23.411Z,62.20
2022-10-18T22:51:52.097Z,61.90
2022-10-18T22:54:20.922Z,61.20
2022-10-18T22:56:51.323Z,61.80
2022-10-18T22:59:20.082Z,62.10
2022-10-18T23:01:48.782Z,62.10
2022-10-18T23:04:17.291Z,62.40
2022-10-18T23:06:45.991Z,63.00
2022-10-18T23:09:14.464Z,64.10
2022-10-18T23:11:43.353Z,63.70
2022-10-18T23:14:13.240Z,65.00
2022-10-18T23:16:42.083Z,63.80
2022-10-18T23:19:16.685Z,62.90
2022-10-18T23:21:45.411Z,61.90
2022-10-18T23:24:13.974Z,61.60
2022-10-18T23:26:42.698Z,61.30
2022-10-18T23:29:12.642Z,62.20
2022-10-18T23:31:41.495Z,63.60
2022-10-18T23:34:11.505Z,63.00
2022-10-18T23:36:40.330Z,63.70
2022-10-18T23:39:08.895Z,64.90
2022-10-18T23:41:37.643Z,66.00
2022-10-18T23:44:09.012Z,66.20
2022-10-18T23:46:39.167Z,66.60
2022-10-18T23:49:07.677Z,65.60
2022-10-18T23:51:36.365Z,65.10
2022-10-18T23:54:04.991Z,64.60
2022-10-18T23:56:33.752Z,63.80
2022-10-18T23:59:02.333Z,65.10
